PWSweather.com
Personal Weather Stations
Station Observations
PWSLORIS
The Farm At Fox Bay, Loris, SC 29569

The Farm At Fox BayLoris, SC 29569

Lat: 34.067097, Lon: -78.86907

Elevation: 108

Station Type: Davis Vantage Pro2 with 24 hr. FARS and solar

http://www.lorisweather.com

Latest ConditionsUpdated 4:15:01 PM EDT Saturday, May 30, 2015
Currently Today's Max Today's Min Today's Average
Temperature 82.9°F28.3°C 85.5°F29.7°C 63.4°F17.4°C 74.0°F23.3°C
Dew Point 67.5°F19.7°C 71.0°F21.7°C 62.5°F16.9°C 67.3°F19.6°C
Winds 4.9 mph S7.9 kmh S 7.3 mph SE11.7 kmh SE - 1.0 mph 1.6 kmh
Wind Gusts 11.0 mph17.7 kmh 11.0 mph17.7 kmh - -
Humidity 60% 98% 58% 82%
Pressure 30.13 in1020.3 mb 30.22 in1023.4 mb 30.13 in1020.3 mb -
Hour Temp Dew Point Humidity Winds Wind Gusts Pressure Precip Precip Rate Daily Precip Total
04:15 PM 82.9°F28.3°C 67.5°F19.7°C 60% 4.9 mph S7.9 kmh S 11.0 mph17.7 kmh 30.13 in1020.3 mb - 0.00 in0.0 mm 0.00 in0.0 mm
04:00 PM 83.8°F28.8°C 68.5°F20.3°C 60% 3.1 mph SSE5.0 kmh SSE 6.0 mph9.7 kmh 30.14 in1020.7 mb - 0.00 in0.0 mm 0.00 in0.0 mm
03:45 PM 84.3°F29.1°C 68.9°F20.5°C 60% 2.8 mph SSE4.5 kmh SSE 6.0 mph9.7 kmh 30.14 in1020.7 mb - 0.00 in0.0 mm 0.00 in0.0 mm
03:30 PM 83.9°F28.8°C 68.0°F20.0°C 59% 5.4 mph SE8.7 kmh SE 6.0 mph9.7 kmh 30.14 in1020.7 mb - 0.00 in0.0 mm 0.00 in0.0 mm
03:15 PM 84.4°F29.1°C 69.0°F20.6°C 60% 5.2 mph S8.4 kmh S 9.0 mph14.5 kmh 30.14 in1020.7 mb - 0.00 in0.0 mm 0.00 in0.0 mm
03:00 PM 84.2°F29.0°C 68.8°F20.4°C 60% 6.0 mph S9.7 kmh S 11.0 mph17.7 kmh 30.15 in1021.0 mb - 0.00 in0.0 mm 0.00 in0.0 mm
02:45 PM 85.1°F29.5°C 68.7°F20.4°C 58% 3.1 mph SSE5.0 kmh SSE 7.0 mph11.3 kmh 30.15 in1021.0 mb - 0.00 in0.0 mm 0.00 in0.0 mm
02:30 PM 85.5°F29.7°C 69.5°F20.8°C 59% 2.8 mph S4.5 kmh S 5.0 mph8.0 kmh 30.16 in1021.3 mb - 0.00 in0.0 mm 0.00 in0.0 mm
02:15 PM 84.9°F29.4°C 68.5°F20.3°C 58% 3.4 mph S5.5 kmh S 9.0 mph14.5 kmh 30.16 in1021.3 mb - 0.00 in0.0 mm 0.00 in0.0 mm
02:00 PM 84.2°F29.0°C 68.8°F20.4°C 60% 7.3 mph SE11.7 kmh SE 10.0 mph16.1 kmh 30.16 in1021.3 mb - 0.00 in0.0 mm 0.00 in0.0 mm
01:45 PM 83.7°F28.7°C 68.9°F20.5°C 61% Calm Calm 2.0 mph3.2 kmh 30.17 in1021.7 mb - 0.00 in0.0 mm 0.00 in0.0 mm
01:30 PM 83.4°F28.6°C 68.1°F20.1°C 60% 0.1 mph S0.2 kmh S 2.0 mph3.2 kmh 30.17 in1021.7 mb - 0.00 in0.0 mm 0.00 in0.0 mm
01:15 PM 84.2°F29.0°C 68.8°F20.4°C 60% 1.8 mph SE2.9 kmh SE 2.0 mph3.2 kmh 30.17 in1021.7 mb - 0.00 in0.0 mm 0.00 in0.0 mm
01:00 PM 84.3°F29.1°C 68.9°F20.5°C 60% 1.1 mph SE1.8 kmh SE 4.0 mph6.4 kmh 30.18 in1022.0 mb - 0.00 in0.0 mm 0.00 in0.0 mm
12:45 PM 84.5°F29.2°C 68.1°F20.1°C 58% 0.4 mph ENE0.6 kmh ENE 3.0 mph4.8 kmh 30.18 in1022.0 mb - 0.00 in0.0 mm 0.00 in0.0 mm
12:30 PM 84.1°F28.9°C 68.2°F20.1°C 59% 3.9 mph SSE6.3 kmh SSE 10.0 mph16.1 kmh 30.18 in1022.0 mb - 0.00 in0.0 mm 0.00 in0.0 mm
12:15 PM 83.6°F28.7°C 68.2°F20.1°C 60% 2.4 mph SE3.9 kmh SE 8.0 mph12.9 kmh 30.18 in1022.0 mb - 0.00 in0.0 mm 0.00 in0.0 mm
12:00 PM 84.0°F28.9°C 69.1°F20.6°C 61% 0.8 mph SE1.3 kmh SE 8.0 mph12.9 kmh 30.19 in1022.4 mb - 0.00 in0.0 mm 0.00 in0.0 mm
11:45 AM 82.8°F28.2°C 68.4°F20.2°C 62% 0.4 mph SSW0.6 kmh SSW 6.0 mph9.7 kmh 30.20 in1022.7 mb - 0.00 in0.0 mm 0.00 in0.0 mm
11:30 AM 83.0°F28.3°C 68.2°F20.1°C 61% 1.4 mph SE2.3 kmh SE 3.0 mph4.8 kmh 30.20 in1022.7 mb - 0.00 in0.0 mm 0.00 in0.0 mm
11:15 AM 82.9°F28.3°C 69.0°F20.6°C 63% 3.0 mph SE4.8 kmh SE 11.0 mph17.7 kmh 30.20 in1022.7 mb - 0.00 in0.0 mm 0.00 in0.0 mm
11:00 AM 81.7°F27.6°C 69.7°F20.9°C 67% 3.6 mph SE5.8 kmh SE 9.0 mph14.5 kmh 30.21 in1023.0 mb - 0.00 in0.0 mm 0.00 in0.0 mm
10:45 AM 81.3°F27.4°C 69.3°F20.7°C 67% 0.5 mph E0.8 kmh E -- 30.21 in1023.0 mb - 0.00 in0.0 mm 0.00 in0.0 mm
10:30 AM 80.1°F26.7°C 69.4°F20.8°C 70% Calm Calm -- 30.21 in1023.0 mb - 0.00 in0.0 mm 0.00 in0.0 mm
10:15 AM 78.8°F26.0°C 70.2°F21.2°C 75% Calm Calm -- 30.21 in1023.0 mb - 0.00 in0.0 mm 0.00 in0.0 mm
10:00 AM 77.9°F25.5°C 70.1°F21.2°C 77% 1.0 mph NE1.6 kmh NE 2.0 mph3.2 kmh 30.21 in1023.0 mb - 0.00 in0.0 mm 0.00 in0.0 mm
09:45 AM 77.4°F25.2°C 70.0°F21.1°C 78% Calm Calm -- 30.21 in1023.0 mb - 0.00 in0.0 mm 0.00 in0.0 mm
09:30 AM 77.3°F25.2°C 71.0°F21.7°C 81% Calm Calm 2.0 mph3.2 kmh 30.22 in1023.4 mb - 0.00 in0.0 mm 0.00 in0.0 mm
09:15 AM 76.9°F24.9°C 71.0°F21.7°C 82% Calm Calm -- 30.22 in1023.4 mb - 0.00 in0.0 mm 0.00 in0.0 mm
09:00 AM 76.1°F24.5°C 71.0°F21.7°C 84% 0.8 mph NE1.3 kmh NE 2.0 mph3.2 kmh 30.21 in1023.0 mb - 0.00 in0.0 mm 0.00 in0.0 mm
08:45 AM 75.4°F24.1°C 70.9°F21.6°C 86% 0.5 mph NE0.8 kmh NE 1.0 mph1.6 kmh 30.21 in1023.0 mb - 0.00 in0.0 mm 0.00 in0.0 mm
08:30 AM 74.2°F23.4°C 70.7°F21.5°C 89% Calm Calm -- 30.21 in1023.0 mb - 0.00 in0.0 mm 0.00 in0.0 mm
08:15 AM 72.7°F22.6°C 70.3°F21.3°C 92% Calm Calm -- 30.21 in1023.0 mb - 0.00 in0.0 mm 0.00 in0.0 mm
08:00 AM 71.3°F21.8°C 69.8°F21.0°C 95% Calm Calm -- 30.21 in1023.0 mb - 0.00 in0.0 mm 0.00 in0.0 mm
07:45 AM 70.0°F21.1°C 69.1°F20.6°C 97% Calm Calm -- 30.20 in1022.7 mb - 0.00 in0.0 mm 0.00 in0.0 mm
07:30 AM 68.3°F20.2°C 67.7°F19.8°C 98% Calm Calm -- 30.19 in1022.4 mb - 0.00 in0.0 mm 0.00 in0.0 mm
07:15 AM 67.2°F19.6°C 66.6°F19.2°C 98% Calm Calm -- 30.19 in1022.4 mb - 0.00 in0.0 mm 0.00 in0.0 mm
07:00 AM 65.3°F18.5°C 64.7°F18.2°C 98% Calm Calm -- 30.20 in1022.7 mb - 0.00 in0.0 mm 0.00 in0.0 mm
06:45 AM 64.3°F17.9°C 63.7°F17.6°C 98% Calm Calm -- 30.19 in1022.4 mb - 0.00 in0.0 mm 0.00 in0.0 mm
06:30 AM 63.6°F17.6°C 63.0°F17.2°C 98% Calm Calm -- 30.19 in1022.4 mb - 0.00 in0.0 mm 0.00 in0.0 mm
06:15 AM 63.4°F17.4°C 62.5°F16.9°C 97% Calm Calm -- 30.18 in1022.0 mb - 0.00 in0.0 mm 0.00 in0.0 mm
06:00 AM 63.4°F17.4°C 62.5°F16.9°C 97% Calm Calm -- 30.18 in1022.0 mb - 0.00 in0.0 mm 0.00 in0.0 mm
05:45 AM 63.8°F17.7°C 62.9°F17.2°C 97% Calm Calm -- 30.17 in1021.7 mb - 0.00 in0.0 mm 0.00 in0.0 mm
05:30 AM 63.8°F17.7°C 63.0°F17.2°C 97% Calm Calm -- 30.17 in1021.7 mb - 0.00 in0.0 mm 0.00 in0.0 mm
05:15 AM 64.1°F17.8°C 63.2°F17.3°C 97% Calm Calm -- 30.17 in1021.7 mb - 0.00 in0.0 mm 0.00 in0.0 mm
05:00 AM 64.4°F18.0°C 63.5°F17.5°C 97% Calm Calm -- 30.16 in1021.3 mb - 0.00 in0.0 mm 0.00 in0.0 mm
04:45 AM 64.5°F18.1°C 63.6°F17.6°C 97% Calm Calm -- 30.16 in1021.3 mb - 0.00 in0.0 mm 0.00 in0.0 mm
04:30 AM 64.9°F18.3°C 64.0°F17.8°C 97% Calm Calm -- 30.16 in1021.3 mb - 0.00 in0.0 mm 0.00 in0.0 mm
04:15 AM 65.0°F18.3°C 64.1°F17.8°C 97% Calm Calm -- 30.16 in1021.3 mb - 0.00 in0.0 mm 0.00 in0.0 mm
04:00 AM 65.2°F18.4°C 64.3°F17.9°C 97% Calm Calm -- 30.15 in1021.0 mb - 0.00 in0.0 mm 0.00 in0.0 mm
03:45 AM 65.5°F18.6°C 64.6°F18.1°C 97% Calm Calm -- 30.15 in1021.0 mb - 0.00 in0.0 mm 0.00 in0.0 mm
03:30 AM 65.8°F18.8°C 64.9°F18.3°C 97% Calm Calm -- 30.15 in1021.0 mb - 0.00 in0.0 mm 0.00 in0.0 mm
03:15 AM 66.2°F19.0°C 65.0°F18.3°C 96% Calm Calm -- 30.15 in1021.0 mb - 0.00 in0.0 mm 0.00 in0.0 mm
03:00 AM 66.5°F19.2°C 65.3°F18.5°C 96% Calm Calm -- 30.16 in1021.3 mb - 0.00 in0.0 mm 0.00 in0.0 mm
02:45 AM 66.7°F19.3°C 65.5°F18.6°C 96% Calm Calm -- 30.16 in1021.3 mb - 0.00 in0.0 mm 0.00 in0.0 mm
02:30 AM 67.0°F19.4°C 65.8°F18.8°C 96% Calm Calm -- 30.17 in1021.7 mb - 0.00 in0.0 mm 0.00 in0.0 mm
02:15 AM 67.4°F19.7°C 66.2°F19.0°C 96% Calm Calm -- 30.17 in1021.7 mb - 0.00 in0.0 mm 0.00 in0.0 mm
02:00 AM 67.7°F19.8°C 66.5°F19.2°C 96% Calm Calm -- 30.17 in1021.7 mb - 0.00 in0.0 mm 0.00 in0.0 mm
01:45 AM 67.8°F19.9°C 66.3°F19.1°C 95% Calm Calm -- 30.17 in1021.7 mb - 0.00 in0.0 mm 0.00 in0.0 mm
01:30 AM 68.3°F20.2°C 66.8°F19.3°C 95% Calm Calm -- 30.17 in1021.7 mb - 0.00 in0.0 mm 0.00 in0.0 mm
01:15 AM 69.1°F20.6°C 67.6°F19.8°C 95% Calm Calm -- 30.18 in1022.0 mb - 0.00 in0.0 mm 0.00 in0.0 mm
01:00 AM 69.4°F20.8°C 67.9°F19.9°C 95% Calm Calm -- 30.18 in1022.0 mb - 0.00 in0.0 mm 0.00 in0.0 mm
12:45 AM 69.1°F20.6°C 67.9°F19.9°C 96% Calm Calm -- 30.19 in1022.4 mb - 0.00 in0.0 mm 0.00 in0.0 mm
12:30 AM 68.3°F20.2°C 66.8°F19.3°C 95% Calm Calm -- 30.19 in1022.4 mb - 0.00 in0.0 mm 0.00 in0.0 mm
12:15 AM 68.1°F20.1°C 66.6°F19.2°C 95% Calm Calm -- 30.20 in1022.7 mb - 0.00 in0.0 mm 0.00 in0.0 mm
12:00 AM 68.1°F20.1°C 66.6°F19.2°C 95% Calm Calm -- 30.20 in1022.7 mb - 0.00 in0.0 mm 0.00 in0.0 mm